Terminal Aerodrome Forecast
Issued by NWS

Home | Current Version | Previous Version | Text Only | Print | Product List | Glossary On
Versions: 1 2 3 4 5 6 7 8 9 10 11 12 13 14 15 16 17 18
000
FTUS44 KMOB 212338
TAFBFM
TAF
KBFM 212338Z 2200/2224 15010KT P6SM VCSH SCT013 SCT022 BKN060
      TEMPO 2200/2202 P6SM -SHRA
     FM220300 13008KT 1/2SM FG BKN007 OVC015
     FM221500 15011KT P6SM SCT015 BKN050=

USA.gov is the U.S. government's official web portal to all federal, state and local government web resources and services.